sensor_id;sensor_type;location;lat;lon;timestamp;pressure;altitude;pressure_sealevel;temperature;humidity
40315;BME280;26021;45.640;11.302;2022-10-30T00:01:54;99513.56;;;13.47;100.00
40315;BME280;26021;45.640;11.302;2022-10-30T00:04:20;99482.72;;;13.43;100.00
40315;BME280;26021;45.640;11.302;2022-10-30T00:06:45;99510.53;;;13.50;100.00
40315;BME280;26021;45.640;11.302;2022-10-30T00:09:11;99514.53;;;13.54;100.00
40315;BME280;26021;45.640;11.302;2022-10-30T00:11:36;99513.81;;;13.60;100.00
40315;BME280;26021;45.640;11.302;2022-10-30T00:14:02;99506.66;;;13.52;100.00
40315;BME280;26021;45.640;11.302;2022-10-30T00:16:27;99506.84;;;13.51;100.00
40315;BME280;26021;45.640;11.302;2022-10-30T00:18:53;99501.47;;;13.51;100.00
40315;BME280;26021;45.640;11.302;2022-10-30T00:21:18;99503.06;;;13.60;100.00
40315;BME280;26021;45.640;11.302;2022-10-30T00:23:46;99485.81;;;13.54;100.00
40315;BME280;26021;45.640;11.302;2022-10-30T00:26:12;99491.84;;;13.56;100.00
40315;BME280;26021;45.640;11.302;2022-10-30T00:28:37;99505.03;;;13.66;100.00
40315;BME280;26021;45.640;11.302;2022-10-30T00:31:04;99495.47;;;13.63;100.00
40315;BME280;26021;45.640;11.302;2022-10-30T00:33:30;99477.63;;;13.48;100.00
40315;BME280;26021;45.640;11.302;2022-10-30T00:35:56;99495.19;;;13.58;100.00
40315;BME280;26021;45.640;11.302;2022-10-30T00:38:22;99451.47;;;13.19;100.00
40315;BME280;26021;45.640;11.302;2022-10-30T00:40:47;99495.34;;;13.34;100.00
40315;BME280;26021;45.640;11.302;2022-10-30T00:43:37;99453.03;;;13.05;100.00
40315;BME280;26021;45.640;11.302;2022-10-30T00:48:31;99428.50;;;12.85;100.00
40315;BME280;26021;45.640;11.302;2022-10-30T00:50:58;99414.13;;;12.78;100.00
40315;BME280;26021;45.640;11.302;2022-10-30T00:53:25;99475.56;;;13.27;100.00
40315;BME280;26021;45.640;11.302;2022-10-30T00:55:57;99487.72;;;13.46;100.00
40315;BME280;26021;45.640;11.302;2022-10-30T00:58:29;99308.56;;;12.32;100.00
40315;BME280;26021;45.640;11.302;2022-10-30T01:00:57;99489.22;;;13.48;100.00
40315;BME280;26021;45.640;11.302;2022-10-30T01:03:25;99476.88;;;13.31;100.00
40315;BME280;26021;45.640;11.302;2022-10-30T01:05:54;99480.06;;;13.34;100.00
40315;BME280;26021;45.640;11.302;2022-10-30T01:08:21;99475.50;;;13.35;100.00
40315;BME280;26021;45.640;11.302;2022-10-30T01:10:47;99474.84;;;13.33;100.00
40315;BME280;26021;45.640;11.302;2022-10-30T01:13:13;99448.81;;;13.11;100.00
40315;BME280;26021;45.640;11.302;2022-10-30T01:30:40;99456.47;;;13.22;100.00
40315;BME280;26021;45.640;11.302;2022-10-30T01:38:24;99442.69;;;13.25;100.00
40315;BME280;26021;45.640;11.302;2022-10-30T01:40:51;99448.69;;;13.04;100.00
40315;BME280;26021;45.640;11.302;2022-10-30T01:43:17;99410.00;;;12.90;100.00
40315;BME280;26021;45.640;11.302;2022-10-30T01:54:05;99435.28;;;13.27;100.00
40315;BME280;26021;45.640;11.302;2022-10-30T01:57:33;99370.09;;;12.87;100.00
40315;BME280;26021;45.640;11.302;2022-10-30T02:00:03;99421.75;;;13.20;100.00
40315;BME280;26021;45.640;11.302;2022-10-30T02:02:26;99424.63;;;13.11;100.00
40315;BME280;26021;45.640;11.302;2022-10-30T02:04:52;99432.34;;;13.14;100.00
40315;BME280;26021;45.640;11.302;2022-10-30T02:07:18;99424.50;;;13.04;100.00
40315;BME280;26021;45.640;11.302;2022-10-30T02:09:44;99436.19;;;13.19;100.00
40315;BME280;26021;45.640;11.302;2022-10-30T02:12:09;99431.50;;;13.13;100.00
40315;BME280;26021;45.640;11.302;2022-10-30T02:14:38;99384.84;;;12.91;100.00
40315;BME280;26021;45.640;11.302;2022-10-30T02:17:07;99418.91;;;13.14;100.00
40315;BME280;26021;45.640;11.302;2022-10-30T02:19:33;99419.53;;;13.24;100.00
40315;BME280;26021;45.640;11.302;2022-10-30T02:21:59;99373.56;;;12.73;100.00
40315;BME280;26021;45.640;11.302;2022-10-30T02:24:24;99413.59;;;13.05;100.00
40315;BME280;26021;45.640;11.302;2022-10-30T02:26:50;99399.38;;;12.97;100.00
40315;BME280;26021;45.640;11.302;2022-10-30T02:29:15;99426.78;;;12.92;100.00
40315;BME280;26021;45.640;11.302;2022-10-30T02:31:45;99358.94;;;12.76;100.00
40315;BME280;26021;45.640;11.302;2022-10-30T02:34:10;99378.44;;;12.69;100.00
40315;BME280;26021;45.640;11.302;2022-10-30T02:36:36;99421.22;;;12.94;100.00
40315;BME280;26021;45.640;11.302;2022-10-30T02:39:01;99395.97;;;12.80;100.00
40315;BME280;26021;45.640;11.302;2022-10-30T02:41:28;99416.75;;;12.86;100.00
40315;BME280;26021;45.640;11.302;2022-10-30T02:43:53;99418.53;;;12.94;100.00
40315;BME280;26021;45.640;11.302;2022-10-30T02:46:19;99415.38;;;12.90;100.00
40315;BME280;26021;45.640;11.302;2022-10-30T02:48:45;99340.88;;;12.61;100.00
40315;BME280;26021;45.640;11.302;2022-10-30T02:51:10;99361.88;;;12.58;100.00
40315;BME280;26021;45.640;11.302;2022-10-30T02:53:36;99415.69;;;12.95;100.00
40315;BME280;26021;45.640;11.302;2022-10-30T02:56:07;99373.91;;;12.70;100.00
40315;BME280;26021;45.640;11.302;2022-10-30T02:58:33;99380.78;;;12.72;100.00
40315;BME280;26021;45.640;11.302;2022-10-30T03:03:31;99412.47;;;13.00;100.00
40315;BME280;26021;45.640;11.302;2022-10-30T03:05:59;99405.25;;;13.00;100.00
40315;BME280;26021;45.640;11.302;2022-10-30T03:08:25;99358.34;;;12.57;100.00
40315;BME280;26021;45.640;11.302;2022-10-30T03:10:51;99331.69;;;12.33;100.00
40315;BME280;26021;45.640;11.302;2022-10-30T03:13:16;99411.81;;;12.98;100.00
40315;BME280;26021;45.640;11.302;2022-10-30T03:15:42;99339.16;;;12.46;100.00
40315;BME280;26021;45.640;11.302;2022-10-30T03:18:07;99392.06;;;12.91;100.00
40315;BME280;26021;45.640;11.302;2022-10-30T03:20:32;99407.78;;;12.71;100.00
40315;BME280;26021;45.640;11.302;2022-10-30T03:22:58;99306.81;;;12.16;100.00
40315;BME280;26021;45.640;11.302;2022-10-30T03:25:23;99400.88;;;12.77;100.00
40315;BME280;26021;45.640;11.302;2022-10-30T03:27:49;99368.66;;;12.46;100.00
40315;BME280;26021;45.640;11.302;2022-10-30T03:30:14;99404.69;;;12.82;100.00
40315;BME280;26021;45.640;11.302;2022-10-30T03:32:40;99398.53;;;12.73;100.00
40315;BME280;26021;45.640;11.302;2022-10-30T03:35:05;99357.03;;;12.53;100.00
40315;BME280;26021;45.640;11.302;2022-10-30T03:37:31;99410.66;;;12.61;100.00
40315;BME280;26021;45.640;11.302;2022-10-30T03:39:56;99400.91;;;12.68;100.00
40315;BME280;26021;45.640;11.302;2022-10-30T03:42:21;99407.25;;;12.76;100.00
40315;BME280;26021;45.640;11.302;2022-10-30T03:44:47;99402.16;;;12.50;100.00
40315;BME280;26021;45.640;11.302;2022-10-30T03:47:12;99411.22;;;12.49;100.00
40315;BME280;26021;45.640;11.302;2022-10-30T03:49:37;99415.94;;;12.47;100.00
40315;BME280;26021;45.640;11.302;2022-10-30T03:52:03;99415.41;;;12.51;100.00
40315;BME280;26021;45.640;11.302;2022-10-30T03:54:28;99421.25;;;12.55;100.00
40315;BME280;26021;45.640;11.302;2022-10-30T03:56:54;99418.41;;;12.56;100.00
40315;BME280;26021;45.640;11.302;2022-10-30T03:59:19;99424.53;;;12.73;100.00
40315;BME280;26021;45.640;11.302;2022-10-30T04:01:44;99421.41;;;12.61;100.00
40315;BME280;26021;45.640;11.302;2022-10-30T04:04:10;99143.19;;;10.84;100.00
40315;BME280;26021;45.640;11.302;2022-10-30T04:06:35;99402.34;;;12.48;100.00
40315;BME280;26021;45.640;11.302;2022-10-30T04:09:01;99403.31;;;12.55;100.00
40315;BME280;26021;45.640;11.302;2022-10-30T04:11:26;99421.09;;;12.56;100.00
40315;BME280;26021;45.640;11.302;2022-10-30T04:13:51;99421.91;;;12.57;100.00
40315;BME280;26021;45.640;11.302;2022-10-30T04:16:17;99418.00;;;12.76;100.00
40315;BME280;26021;45.640;11.302;2022-10-30T04:18:42;99423.88;;;12.71;100.00
40315;BME280;26021;45.640;11.302;2022-10-30T04:21:08;99380.19;;;12.23;100.00
40315;BME280;26021;45.640;11.302;2022-10-30T04:23:33;99417.88;;;12.61;100.00
40315;BME280;26021;45.640;11.302;2022-10-30T04:25:59;99397.28;;;12.22;100.00
40315;BME280;26021;45.640;11.302;2022-10-30T04:28:26;99337.06;;;11.86;100.00
40315;BME280;26021;45.640;11.302;2022-10-30T04:30:51;99428.34;;;12.48;100.00
40315;BME280;26021;45.640;11.302;2022-10-30T04:33:17;99429.19;;;12.48;100.00
40315;BME280;26021;45.640;11.302;2022-10-30T04:35:42;99428.25;;;12.33;100.00
40315;BME280;26021;45.640;11.302;2022-10-30T04:38:12;99429.03;;;12.41;100.00
40315;BME280;26021;45.640;11.302;2022-10-30T04:40:39;99410.19;;;12.19;100.00
40315;BME280;26021;45.640;11.302;2022-10-30T04:43:06;99418.97;;;12.44;100.00
40315;BME280;26021;45.640;11.302;2022-10-30T04:45:32;99422.81;;;12.49;100.00
40315;BME280;26021;45.640;11.302;2022-10-30T04:48:11;99420.81;;;12.43;100.00
40315;BME280;26021;45.640;11.302;2022-10-30T04:50:37;99415.81;;;12.40;100.00
40315;BME280;26021;45.640;11.302;2022-10-30T04:53:05;99419.16;;;12.42;100.00
40315;BME280;26021;45.640;11.302;2022-10-30T04:55:32;99418.22;;;12.58;100.00
40315;BME280;26021;45.640;11.302;2022-10-30T04:57:58;99414.13;;;12.39;100.00
40315;BME280;26021;45.640;11.302;2022-10-30T05:00:25;99416.47;;;12.42;100.00
40315;BME280;26021;45.640;11.302;2022-10-30T05:02:51;99335.88;;;11.88;100.00
40315;BME280;26021;45.640;11.302;2022-10-30T05:05:16;99410.13;;;12.35;100.00
40315;BME280;26021;45.640;11.302;2022-10-30T05:07:42;99359.91;;;12.21;100.00
40315;BME280;26021;45.640;11.302;2022-10-30T05:10:11;99415.25;;;12.53;100.00
40315;BME280;26021;45.640;11.302;2022-10-30T05:12:42;99417.22;;;12.59;100.00
40315;BME280;26021;45.640;11.302;2022-10-30T05:15:08;99335.41;;;11.85;100.00
40315;BME280;26021;45.640;11.302;2022-10-30T05:17:33;99404.78;;;12.27;100.00
40315;BME280;26021;45.640;11.302;2022-10-30T05:19:59;99345.88;;;12.11;100.00
40315;BME280;26021;45.640;11.302;2022-10-30T05:22:24;99412.66;;;12.28;100.00
40315;BME280;26021;45.640;11.302;2022-10-30T05:24:49;99411.66;;;12.29;100.00
40315;BME280;26021;45.640;11.302;2022-10-30T05:27:15;99408.19;;;12.21;100.00
40315;BME280;26021;45.640;11.302;2022-10-30T05:29:40;99351.56;;;12.16;100.00
40315;BME280;26021;45.640;11.302;2022-10-30T05:32:06;99381.16;;;12.30;100.00
40315;BME280;26021;45.640;11.302;2022-10-30T05:34:31;99351.47;;;11.93;100.00
40315;BME280;26021;45.640;11.302;2022-10-30T05:36:56;99381.09;;;11.99;100.00
40315;BME280;26021;45.640;11.302;2022-10-30T05:39:22;99392.84;;;12.37;100.00
40315;BME280;26021;45.640;11.302;2022-10-30T05:41:47;99394.03;;;12.35;100.00
40315;BME280;26021;45.640;11.302;2022-10-30T05:44:13;99400.09;;;12.29;100.00
40315;BME280;26021;45.640;11.302;2022-10-30T05:46:38;99405.78;;;12.34;100.00
40315;BME280;26021;45.640;11.302;2022-10-30T05:49:04;99402.78;;;12.29;100.00
40315;BME280;26021;45.640;11.302;2022-10-30T05:51:30;99402.69;;;12.45;100.00
40315;BME280;26021;45.640;11.302;2022-10-30T05:53:55;99405.69;;;12.50;100.00
40315;BME280;26021;45.640;11.302;2022-10-30T05:56:20;99402.56;;;12.38;100.00
40315;BME280;26021;45.640;11.302;2022-10-30T05:58:48;99358.72;;;12.23;100.00
40315;BME280;26021;45.640;11.302;2022-10-30T06:01:14;99400.38;;;12.42;100.00
40315;BME280;26021;45.640;11.302;2022-10-30T06:03:39;99398.59;;;12.57;100.00
40315;BME280;26021;45.640;11.302;2022-10-30T06:06:05;99404.16;;;12.56;100.00
40315;BME280;26021;45.640;11.302;2022-10-30T06:08:31;99402.97;;;12.58;100.00
40315;BME280;26021;45.640;11.302;2022-10-30T06:10:56;99206.09;;;11.43;100.00
40315;BME280;26021;45.640;11.302;2022-10-30T06:13:21;99338.97;;;12.16;100.00
40315;BME280;26021;45.640;11.302;2022-10-30T06:15:47;99402.16;;;12.50;100.00
40315;BME280;26021;45.640;11.302;2022-10-30T06:18:13;99371.47;;;12.52;100.00
40315;BME280;26021;45.640;11.302;2022-10-30T06:20:38;99407.56;;;12.81;100.00
40315;BME280;26021;45.640;11.302;2022-10-30T06:23:06;99317.22;;;12.11;100.00
40315;BME280;26021;45.640;11.302;2022-10-30T06:25:33;99410.34;;;12.56;100.00
40315;BME280;26021;45.640;11.302;2022-10-30T06:27:59;99413.03;;;12.56;100.00
40315;BME280;26021;45.640;11.302;2022-10-30T06:30:25;99415.06;;;12.54;100.00
40315;BME280;26021;45.640;11.302;2022-10-30T06:33:02;99411.41;;;12.47;100.00
40315;BME280;26021;45.640;11.302;2022-10-30T06:35:28;99241.88;;;11.51;100.00
40315;BME280;26021;45.640;11.302;2022-10-30T06:37:55;99411.66;;;12.68;100.00
40315;BME280;26021;45.640;11.302;2022-10-30T06:40:22;99356.03;;;12.54;100.00
40315;BME280;26021;45.640;11.302;2022-10-30T06:42:49;99410.50;;;12.94;100.00
40315;BME280;26021;45.640;11.302;2022-10-30T06:45:16;99415.97;;;13.00;100.00
40315;BME280;26021;45.640;11.302;2022-10-30T06:47:42;99411.81;;;12.98;100.00
40315;BME280;26021;45.640;11.302;2022-10-30T06:50:10;99419.09;;;13.12;100.00
40315;BME280;26021;45.640;11.302;2022-10-30T06:52:37;99415.56;;;13.34;100.00
40315;BME280;26021;45.640;11.302;2022-10-30T06:55:03;99422.75;;;13.42;100.00
40315;BME280;26021;45.640;11.302;2022-10-30T06:57:29;99391.41;;;13.34;100.00
40315;BME280;26021;45.640;11.302;2022-10-30T06:59:54;99425.13;;;13.60;100.00
40315;BME280;26021;45.640;11.302;2022-10-30T07:02:19;99423.75;;;13.64;100.00
40315;BME280;26021;45.640;11.302;2022-10-30T07:04:45;99424.31;;;13.89;100.00
40315;BME280;26021;45.640;11.302;2022-10-30T07:07:12;99427.84;;;14.04;100.00
40315;BME280;26021;45.640;11.302;2022-10-30T07:09:37;99415.66;;;14.16;100.00
40315;BME280;26021;45.640;11.302;2022-10-30T07:12:03;99415.72;;;14.38;100.00
40315;BME280;26021;45.640;11.302;2022-10-30T07:14:28;99430.81;;;14.68;100.00
40315;BME280;26021;45.640;11.302;2022-10-30T07:16:54;99423.47;;;14.91;100.00
40315;BME280;26021;45.640;11.302;2022-10-30T07:19:20;99433.22;;;14.92;100.00
40315;BME280;26021;45.640;11.302;2022-10-30T07:21:46;99436.50;;;15.09;100.00
40315;BME280;26021;45.640;11.302;2022-10-30T07:24:12;99380.03;;;15.01;100.00
40315;BME280;26021;45.640;11.302;2022-10-30T07:26:37;98769.56;;;11.43;100.00
40315;BME280;26021;45.640;11.302;2022-10-30T07:29:03;99426.50;;;15.67;100.00
40315;BME280;26021;45.640;11.302;2022-10-30T07:31:29;99421.16;;;15.74;100.00
40315;BME280;26021;45.640;11.302;2022-10-30T07:33:55;99431.69;;;15.97;100.00
40315;BME280;26021;45.640;11.302;2022-10-30T07:36:21;99385.44;;;16.00;100.00
40315;BME280;26021;45.640;11.302;2022-10-30T07:38:47;99432.22;;;16.13;100.00
40315;BME280;26021;45.640;11.302;2022-10-30T07:41:13;99372.91;;;15.85;100.00
40315;BME280;26021;45.640;11.302;2022-10-30T07:43:39;99432.31;;;16.33;100.00
40315;BME280;26021;45.640;11.302;2022-10-30T07:46:04;99253.34;;;15.78;100.00
40315;BME280;26021;45.640;11.302;2022-10-30T07:48:30;99438.22;;;16.91;100.00
40315;BME280;26021;45.640;11.302;2022-10-30T07:50:55;99428.47;;;16.97;100.00
40315;BME280;26021;45.640;11.302;2022-10-30T07:53:20;99405.59;;;16.99;100.00
40315;BME280;26021;45.640;11.302;2022-10-30T07:55:46;99426.03;;;17.15;100.00
40315;BME280;26021;45.640;11.302;2022-10-30T07:58:11;99414.63;;;17.26;100.00
40315;BME280;26021;45.640;11.302;2022-10-30T08:00:37;99399.19;;;17.07;100.00
40315;BME280;26021;45.640;11.302;2022-10-30T08:03:03;99402.78;;;17.40;100.00
40315;BME280;26021;45.640;11.302;2022-10-30T08:05:28;99373.44;;;17.24;100.00
40315;BME280;26021;45.640;11.302;2022-10-30T08:07:54;99420.50;;;17.69;100.00
40315;BME280;26021;45.640;11.302;2022-10-30T08:10:19;99383.03;;;17.46;100.00
40315;BME280;26021;45.640;11.302;2022-10-30T08:12:45;99422.59;;;17.87;100.00
40315;BME280;26021;45.640;11.302;2022-10-30T08:15:11;99428.81;;;18.07;100.00
40315;BME280;26021;45.640;11.302;2022-10-30T08:17:44;99407.78;;;18.03;100.00
40315;BME280;26021;45.640;11.302;2022-10-30T08:20:12;99385.53;;;17.74;100.00
40315;BME280;26021;45.640;11.302;2022-10-30T08:22:44;99422.31;;;18.15;100.00
40315;BME280;26021;45.640;11.302;2022-10-30T08:25:10;99406.03;;;18.35;100.00
40315;BME280;26021;45.640;11.302;2022-10-30T08:27:35;99416.81;;;18.48;100.00
40315;BME280;26021;45.640;11.302;2022-10-30T08:30:01;99389.56;;;18.36;100.00
40315;BME280;26021;45.640;11.302;2022-10-30T08:32:26;99387.63;;;18.50;100.00
40315;BME280;26021;45.640;11.302;2022-10-30T08:34:51;99404.94;;;18.49;100.00
40315;BME280;26021;45.640;11.302;2022-10-30T08:37:17;99411.81;;;18.58;100.00
40315;BME280;26021;45.640;11.302;2022-10-30T08:39:42;99418.03;;;18.72;100.00
40315;BME280;26021;45.640;11.302;2022-10-30T08:42:08;99410.44;;;18.87;100.00
40315;BME280;26021;45.640;11.302;2022-10-30T08:44:33;99384.03;;;18.76;100.00
40315;BME280;26021;45.640;11.302;2022-10-30T08:46:58;99377.75;;;18.82;100.00
40315;BME280;26021;45.640;11.302;2022-10-30T08:49:24;99409.94;;;19.03;100.00
40315;BME280;26021;45.640;11.302;2022-10-30T08:51:49;99366.84;;;18.89;100.00
40315;BME280;26021;45.640;11.302;2022-10-30T08:54:14;99390.97;;;19.28;100.00
40315;BME280;26021;45.640;11.302;2022-10-30T08:56:40;99419.13;;;19.65;100.00
40315;BME280;26021;45.640;11.302;2022-10-30T08:59:08;99402.63;;;19.67;100.00
40315;BME280;26021;45.640;11.302;2022-10-30T09:01:33;99418.75;;;19.62;100.00
40315;BME280;26021;45.640;11.302;2022-10-30T09:04:01;99401.13;;;19.71;100.00
40315;BME280;26021;45.640;11.302;2022-10-30T09:06:26;99408.78;;;19.99;99.87
40315;BME280;26021;45.640;11.302;2022-10-30T09:08:52;99368.78;;;19.70;100.00
40315;BME280;26021;45.640;11.302;2022-10-30T09:11:17;99351.34;;;19.59;100.00
40315;BME280;26021;45.640;11.302;2022-10-30T09:13:43;99399.06;;;19.91;100.00
40315;BME280;26021;45.640;11.302;2022-10-30T09:16:08;99357.25;;;19.74;98.82
40315;BME280;26021;45.640;11.302;2022-10-30T09:18:33;99415.06;;;19.99;99.94
40315;BME280;26021;45.640;11.302;2022-10-30T09:20:59;99412.84;;;20.15;98.47
40315;BME280;26021;45.640;11.302;2022-10-30T09:23:24;99337.44;;;19.74;100.00
40315;BME280;26021;45.640;11.302;2022-10-30T09:25:50;99385.16;;;20.24;100.00
40315;BME280;26021;45.640;11.302;2022-10-30T09:28:15;99415.19;;;20.29;100.00
40315;BME280;26021;45.640;11.302;2022-10-30T09:30:40;99389.31;;;20.09;100.00
40315;BME280;26021;45.640;11.302;2022-10-30T09:33:06;99403.72;;;20.27;100.00
40315;BME280;26021;45.640;11.302;2022-10-30T09:35:33;99410.22;;;20.45;100.00
40315;BME280;26021;45.640;11.302;2022-10-30T09:37:58;99407.97;;;20.42;99.74
40315;BME280;26021;45.640;11.302;2022-10-30T09:40:37;99416.94;;;20.60;99.88
40315;BME280;26021;45.640;11.302;2022-10-30T09:55:29;99413.53;;;20.83;98.88
40315;BME280;26021;45.640;11.302;2022-10-30T09:58:19;99411.09;;;20.75;100.00
40315;BME280;26021;45.640;11.302;2022-10-30T10:01:27;99415.03;;;20.79;97.00
40315;BME280;26021;45.640;11.302;2022-10-30T10:06:32;99395.47;;;20.89;94.21
40315;BME280;26021;45.640;11.302;2022-10-30T10:09:02;99394.66;;;20.88;97.86
40315;BME280;26021;45.640;11.302;2022-10-30T10:11:37;99405.19;;;20.97;98.07
40315;BME280;26021;45.640;11.302;2022-10-30T10:14:23;99410.78;;;21.02;97.83
40315;BME280;26021;45.640;11.302;2022-10-30T10:16:52;99413.44;;;21.20;97.73
40315;BME280;26021;45.640;11.302;2022-10-30T10:19:30;99395.31;;;21.14;99.32
40315;BME280;26021;45.640;11.302;2022-10-30T10:22:02;99413.72;;;21.30;100.00
40315;BME280;26021;45.640;11.302;2022-10-30T10:24:30;99417.19;;;21.37;99.63
40315;BME280;26021;45.640;11.302;2022-10-30T10:30:10;99403.59;;;21.49;100.00
40315;BME280;26021;45.640;11.302;2022-10-30T10:52:08;99373.00;;;21.77;94.80
40315;BME280;26021;45.640;11.302;2022-10-30T10:57:34;99380.22;;;22.06;94.97
40315;BME280;26021;45.640;11.302;2022-10-30T11:00:15;99381.03;;;21.95;96.77
40315;BME280;26021;45.640;11.302;2022-10-30T11:08:27;99374.50;;;22.43;97.04
40315;BME280;26021;45.640;11.302;2022-10-30T11:11:03;99358.78;;;22.33;96.58
40315;BME280;26021;45.640;11.302;2022-10-30T11:13:34;99368.72;;;22.39;95.07
40315;BME280;26021;45.640;11.302;2022-10-30T11:16:10;99364.91;;;22.40;96.13
40315;BME280;26021;45.640;11.302;2022-10-30T11:18:37;99369.84;;;22.55;94.83
40315;BME280;26021;45.640;11.302;2022-10-30T11:21:18;99336.94;;;22.45;94.68
40315;BME280;26021;45.640;11.302;2022-10-30T11:23:45;99365.66;;;22.64;95.86
40315;BME280;26021;45.640;11.302;2022-10-30T11:31:18;99357.16;;;22.61;95.79
40315;BME280;26021;45.640;11.302;2022-10-30T11:33:44;99209.50;;;21.83;93.60
40315;BME280;26021;45.640;11.302;2022-10-30T11:36:12;99343.94;;;22.69;94.72
40315;BME280;26021;45.640;11.302;2022-10-30T11:38:38;99346.66;;;22.81;93.85
40315;BME280;26021;45.640;11.302;2022-10-30T11:41:04;99328.06;;;22.66;94.70
40315;BME280;26021;45.640;11.302;2022-10-30T11:43:29;99346.16;;;22.84;95.51
40315;BME280;26021;45.640;11.302;2022-10-30T11:45:55;99349.91;;;22.95;93.85
40315;BME280;26021;45.640;11.302;2022-10-30T11:48:26;99348.59;;;22.97;96.28
40315;BME280;26021;45.640;11.302;2022-10-30T11:50:57;99353.84;;;23.16;96.03
40315;BME280;26021;45.640;11.302;2022-10-30T11:53:28;99337.16;;;23.12;94.64
40315;BME280;26021;45.640;11.302;2022-10-30T11:55:56;99353.69;;;23.22;95.53
40315;BME280;26021;45.640;11.302;2022-10-30T11:58:34;99341.88;;;23.17;94.77
40315;BME280;26021;45.640;11.302;2022-10-30T12:01:30;99338.16;;;23.39;93.39
40315;BME280;26021;45.640;11.302;2022-10-30T12:04:22;99331.53;;;23.19;94.43
40315;BME280;26021;45.640;11.302;2022-10-30T12:07:05;99333.34;;;23.13;93.23
40315;BME280;26021;45.640;11.302;2022-10-30T12:09:31;99315.50;;;23.22;93.03
40315;BME280;26021;45.640;11.302;2022-10-30T12:11:56;99331.53;;;23.35;91.62
40315;BME280;26021;45.640;11.302;2022-10-30T12:14:23;99255.72;;;23.04;92.75
40315;BME280;26021;45.640;11.302;2022-10-30T12:16:54;99316.66;;;23.43;92.44
40315;BME280;26021;45.640;11.302;2022-10-30T12:19:22;99261.41;;;23.19;89.72
40315;BME280;26021;45.640;11.302;2022-10-30T12:21:50;99326.00;;;23.30;88.80
40315;BME280;26021;45.640;11.302;2022-10-30T12:24:37;99265.56;;;23.22;88.80
40315;BME280;26021;45.640;11.302;2022-10-30T12:27:09;99318.53;;;23.42;88.06
40315;BME280;26021;45.640;11.302;2022-10-30T12:32:48;99323.00;;;23.49;89.16
40315;BME280;26021;45.640;11.302;2022-10-30T12:37:52;99296.53;;;23.66;89.95
40315;BME280;26021;45.640;11.302;2022-10-30T12:40:20;99308.19;;;23.78;90.06
40315;BME280;26021;45.640;11.302;2022-10-30T12:43:14;99305.31;;;23.68;88.83
40315;BME280;26021;45.640;11.302;2022-10-30T12:45:43;99284.88;;;23.54;89.62
40315;BME280;26021;45.640;11.302;2022-10-30T12:48:16;99307.34;;;23.77;89.62
40315;BME280;26021;45.640;11.302;2022-10-30T12:51:02;99295.53;;;23.72;89.79
40315;BME280;26021;45.640;11.302;2022-10-30T12:56:17;99250.97;;;23.50;91.49
40315;BME280;26021;45.640;11.302;2022-10-30T12:58:55;99289.69;;;23.80;90.01
40315;BME280;26021;45.640;11.302;2022-10-30T13:01:35;99281.22;;;23.82;90.78
40315;BME280;26021;45.640;11.302;2022-10-30T13:04:15;99248.78;;;23.68;91.10
40315;BME280;26021;45.640;11.302;2022-10-30T13:06:53;99293.44;;;23.96;90.11
40315;BME280;26021;45.640;11.302;2022-10-30T13:09:26;99255.16;;;23.74;89.91
40315;BME280;26021;45.640;11.302;2022-10-30T13:12:17;99133.84;;;22.76;90.44
40315;BME280;26021;45.640;11.302;2022-10-30T13:14:51;99291.66;;;23.68;92.08
40315;BME280;26021;45.640;11.302;2022-10-30T13:17:17;99119.88;;;22.72;91.43
40315;BME280;26021;45.640;11.302;2022-10-30T13:19:46;99279.00;;;23.62;93.39
40315;BME280;26021;45.640;11.302;2022-10-30T13:23:17;99262.22;;;23.36;93.40
40315;BME280;26021;45.640;11.302;2022-10-30T13:30:40;99273.03;;;23.48;93.54
40315;BME280;26021;45.640;11.302;2022-10-30T13:33:37;99259.06;;;23.44;93.84
40315;BME280;26021;45.640;11.302;2022-10-30T13:36:20;99216.84;;;23.30;93.82
40315;BME280;26021;45.640;11.302;2022-10-30T13:53:19;99253.31;;;23.24;99.03
40315;BME280;26021;45.640;11.302;2022-10-30T13:55:48;99277.88;;;23.07;100.00
40315;BME280;26021;45.640;11.302;2022-10-30T13:58:16;99284.28;;;23.01;100.00
40315;BME280;26021;45.640;11.302;2022-10-30T14:01:05;99284.19;;;22.96;100.00
40315;BME280;26021;45.640;11.302;2022-10-30T14:09:42;99277.41;;;22.54;100.00
40315;BME280;26021;45.640;11.302;2022-10-30T14:15:15;99273.66;;;22.71;100.00
40315;BME280;26021;45.640;11.302;2022-10-30T14:20:47;99257.69;;;22.35;100.00
40315;BME280;26021;45.640;11.302;2022-10-30T14:25:41;99277.13;;;22.27;100.00
40315;BME280;26021;45.640;11.302;2022-10-30T14:28:19;99285.31;;;22.27;100.00
40315;BME280;26021;45.640;11.302;2022-10-30T14:30:45;99209.84;;;21.87;100.00
40315;BME280;26021;45.640;11.302;2022-10-30T14:41:58;99279.44;;;22.06;100.00
40315;BME280;26021;45.640;11.302;2022-10-30T14:53:09;99277.56;;;21.25;100.00
40315;BME280;26021;45.640;11.302;2022-10-30T14:56:06;99276.09;;;20.99;100.00
40315;BME280;26021;45.640;11.302;2022-10-30T14:58:36;99211.19;;;20.49;100.00
40315;BME280;26021;45.640;11.302;2022-10-30T15:09:27;99282.22;;;20.35;100.00
40315;BME280;26021;45.640;11.302;2022-10-30T15:14:35;99227.66;;;19.88;100.00
40315;BME280;26021;45.640;11.302;2022-10-30T15:17:02;99280.09;;;20.07;100.00
40315;BME280;26021;45.640;11.302;2022-10-30T15:19:28;99249.91;;;19.78;100.00
40315;BME280;26021;45.640;11.302;2022-10-30T15:21:55;99275.75;;;19.99;100.00
40315;BME280;26021;45.640;11.302;2022-10-30T15:24:23;99221.69;;;19.43;100.00
40315;BME280;26021;45.640;11.302;2022-10-30T15:26:51;99252.28;;;19.50;100.00